sensor_id;sensor_type;location;lat;lon;timestamp;P1;durP1;ratioP1;P2;durP2;ratioP2
3487;SDS011;38546;48.170;11.724;2023-08-31T00:01:30;6.10;;;5.33;;
3487;SDS011;38546;48.170;11.724;2023-08-31T00:04:19;5.23;;;4.83;;
3487;SDS011;38546;48.170;11.724;2023-08-31T00:07:08;5.07;;;4.57;;
3487;SDS011;38546;48.170;11.724;2023-08-31T00:09:57;8.40;;;5.20;;
3487;SDS011;38546;48.170;11.724;2023-08-31T00:12:54;6.10;;;5.60;;
3487;SDS011;38546;48.170;11.724;2023-08-31T00:15:45;5.37;;;4.87;;
3487;SDS011;38546;48.170;11.724;2023-08-31T00:18:35;5.43;;;4.93;;
3487;SDS011;38546;48.170;11.724;2023-08-31T00:21:25;5.07;;;4.67;;
3487;SDS011;38546;48.170;11.724;2023-08-31T00:24:14;6.80;;;5.30;;
3487;SDS011;38546;48.170;11.724;2023-08-31T00:27:04;5.33;;;4.83;;
3487;SDS011;38546;48.170;11.724;2023-08-31T00:29:55;4.90;;;4.50;;
3487;SDS011;38546;48.170;11.724;2023-08-31T00:32:46;8.10;;;4.30;;
3487;SDS011;38546;48.170;11.724;2023-08-31T00:35:39;5.67;;;5.07;;
3487;SDS011;38546;48.170;11.724;2023-08-31T00:38:34;10.37;;;5.37;;
3487;SDS011;38546;48.170;11.724;2023-08-31T00:41:24;5.17;;;4.77;;
3487;SDS011;38546;48.170;11.724;2023-08-31T00:44:14;5.17;;;4.77;;
3487;SDS011;38546;48.170;11.724;2023-08-31T00:47:03;8.03;;;4.80;;
3487;SDS011;38546;48.170;11.724;2023-08-31T00:49:53;5.57;;;5.17;;
3487;SDS011;38546;48.170;11.724;2023-08-31T00:52:43;5.97;;;5.47;;
3487;SDS011;38546;48.170;11.724;2023-08-31T00:55:36;6.00;;;5.40;;
3487;SDS011;38546;48.170;11.724;2023-08-31T00:58:27;5.03;;;4.47;;
3487;SDS011;38546;48.170;11.724;2023-08-31T01:01:36;5.00;;;4.50;;
3487;SDS011;38546;48.170;11.724;2023-08-31T01:04:41;5.20;;;4.70;;
3487;SDS011;38546;48.170;11.724;2023-08-31T01:08:05;5.53;;;5.03;;
3487;SDS011;38546;48.170;11.724;2023-08-31T01:11:24;5.73;;;5.13;;
3487;SDS011;38546;48.170;11.724;2023-08-31T01:15:10;4.40;;;4.10;;
3487;SDS011;38546;48.170;11.724;2023-08-31T01:18:00;7.10;;;5.27;;
3487;SDS011;38546;48.170;11.724;2023-08-31T01:24:26;5.60;;;5.23;;
3487;SDS011;38546;48.170;11.724;2023-08-31T01:27:16;5.60;;;5.10;;
3487;SDS011;38546;48.170;11.724;2023-08-31T01:30:06;7.27;;;5.13;;
3487;SDS011;38546;48.170;11.724;2023-08-31T01:32:57;6.00;;;5.37;;
3487;SDS011;38546;48.170;11.724;2023-08-31T01:35:48;5.00;;;4.60;;
3487;SDS011;38546;48.170;11.724;2023-08-31T01:38:42;5.40;;;4.97;;
3487;SDS011;38546;48.170;11.724;2023-08-31T01:41:34;5.37;;;4.87;;
3487;SDS011;38546;48.170;11.724;2023-08-31T01:44:25;5.87;;;5.23;;
3487;SDS011;38546;48.170;11.724;2023-08-31T01:47:16;6.83;;;5.47;;
3487;SDS011;38546;48.170;11.724;2023-08-31T01:50:08;8.03;;;5.80;;
3487;SDS011;38546;48.170;11.724;2023-08-31T01:52:58;6.33;;;5.73;;
3487;SDS011;38546;48.170;11.724;2023-08-31T01:55:47;6.00;;;5.10;;
3487;SDS011;38546;48.170;11.724;2023-08-31T01:58:37;5.90;;;5.30;;
3487;SDS011;38546;48.170;11.724;2023-08-31T02:01:26;6.03;;;5.43;;
3487;SDS011;38546;48.170;11.724;2023-08-31T02:04:15;5.83;;;5.33;;
3487;SDS011;38546;48.170;11.724;2023-08-31T02:07:04;6.33;;;5.73;;
3487;SDS011;38546;48.170;11.724;2023-08-31T02:09:54;9.27;;;6.20;;
3487;SDS011;38546;48.170;11.724;2023-08-31T02:12:44;5.97;;;5.40;;
3487;SDS011;38546;48.170;11.724;2023-08-31T02:15:33;4.83;;;4.50;;
3487;SDS011;38546;48.170;11.724;2023-08-31T02:18:23;6.00;;;5.40;;
3487;SDS011;38546;48.170;11.724;2023-08-31T02:21:12;7.70;;;5.00;;
3487;SDS011;38546;48.170;11.724;2023-08-31T02:24:02;6.43;;;5.83;;
3487;SDS011;38546;48.170;11.724;2023-08-31T02:26:52;5.90;;;5.40;;
3487;SDS011;38546;48.170;11.724;2023-08-31T02:29:42;5.37;;;4.97;;
3487;SDS011;38546;48.170;11.724;2023-08-31T02:32:32;6.10;;;5.50;;
3487;SDS011;38546;48.170;11.724;2023-08-31T02:35:22;6.10;;;5.43;;
3487;SDS011;38546;48.170;11.724;2023-08-31T02:38:11;5.87;;;5.27;;
3487;SDS011;38546;48.170;11.724;2023-08-31T02:41:00;6.50;;;6.00;;
3487;SDS011;38546;48.170;11.724;2023-08-31T02:43:50;7.73;;;6.00;;
3487;SDS011;38546;48.170;11.724;2023-08-31T02:46:40;6.33;;;5.80;;
3487;SDS011;38546;48.170;11.724;2023-08-31T02:49:30;7.83;;;5.43;;
3487;SDS011;38546;48.170;11.724;2023-08-31T02:52:20;9.13;;;6.53;;
3487;SDS011;38546;48.170;11.724;2023-08-31T02:55:09;7.20;;;5.90;;
3487;SDS011;38546;48.170;11.724;2023-08-31T02:57:59;6.53;;;5.90;;
3487;SDS011;38546;48.170;11.724;2023-08-31T03:00:48;7.27;;;6.30;;
3487;SDS011;38546;48.170;11.724;2023-08-31T03:03:38;7.63;;;5.73;;
3487;SDS011;38546;48.170;11.724;2023-08-31T03:06:31;6.63;;;5.87;;
3487;SDS011;38546;48.170;11.724;2023-08-31T03:09:23;6.33;;;5.73;;
3487;SDS011;38546;48.170;11.724;2023-08-31T03:12:12;6.73;;;6.10;;
3487;SDS011;38546;48.170;11.724;2023-08-31T03:15:02;7.80;;;6.37;;
3487;SDS011;38546;48.170;11.724;2023-08-31T03:17:54;7.70;;;6.87;;
3487;SDS011;38546;48.170;11.724;2023-08-31T03:20:43;7.10;;;6.40;;
3487;SDS011;38546;48.170;11.724;2023-08-31T03:23:32;6.87;;;6.00;;
3487;SDS011;38546;48.170;11.724;2023-08-31T03:26:21;8.83;;;6.97;;
3487;SDS011;38546;48.170;11.724;2023-08-31T03:29:10;8.53;;;7.20;;
3487;SDS011;38546;48.170;11.724;2023-08-31T03:32:00;7.30;;;6.20;;
3487;SDS011;38546;48.170;11.724;2023-08-31T03:34:50;8.17;;;6.97;;
3487;SDS011;38546;48.170;11.724;2023-08-31T03:37:40;7.37;;;6.67;;
3487;SDS011;38546;48.170;11.724;2023-08-31T03:40:30;10.03;;;6.80;;
3487;SDS011;38546;48.170;11.724;2023-08-31T03:43:20;7.37;;;6.67;;
3487;SDS011;38546;48.170;11.724;2023-08-31T03:46:10;7.43;;;6.73;;
3487;SDS011;38546;48.170;11.724;2023-08-31T03:48:59;7.50;;;6.73;;
3487;SDS011;38546;48.170;11.724;2023-08-31T03:51:49;11.13;;;7.43;;
3487;SDS011;38546;48.170;11.724;2023-08-31T03:54:38;11.87;;;8.20;;
3487;SDS011;38546;48.170;11.724;2023-08-31T03:57:27;13.10;;;8.53;;
3487;SDS011;38546;48.170;11.724;2023-08-31T04:00:17;10.90;;;8.47;;
3487;SDS011;38546;48.170;11.724;2023-08-31T04:03:07;11.70;;;8.43;;
3487;SDS011;38546;48.170;11.724;2023-08-31T04:05:57;12.30;;;9.60;;
3487;SDS011;38546;48.170;11.724;2023-08-31T04:08:46;10.40;;;8.40;;
3487;SDS011;38546;48.170;11.724;2023-08-31T04:11:36;10.63;;;8.53;;
3487;SDS011;38546;48.170;11.724;2023-08-31T04:14:26;9.80;;;8.00;;
3487;SDS011;38546;48.170;11.724;2023-08-31T04:17:16;8.33;;;6.77;;
3487;SDS011;38546;48.170;11.724;2023-08-31T04:20:05;12.23;;;8.50;;
3487;SDS011;38546;48.170;11.724;2023-08-31T04:22:56;9.97;;;6.90;;
3487;SDS011;38546;48.170;11.724;2023-08-31T04:25:45;9.13;;;8.10;;
3487;SDS011;38546;48.170;11.724;2023-08-31T04:28:36;11.00;;;7.60;;
3487;SDS011;38546;48.170;11.724;2023-08-31T04:31:26;8.13;;;7.40;;
3487;SDS011;38546;48.170;11.724;2023-08-31T04:34:15;12.63;;;7.83;;
3487;SDS011;38546;48.170;11.724;2023-08-31T04:37:05;8.07;;;7.27;;
3487;SDS011;38546;48.170;11.724;2023-08-31T04:39:54;8.10;;;7.00;;
3487;SDS011;38546;48.170;11.724;2023-08-31T04:42:44;10.60;;;7.07;;
3487;SDS011;38546;48.170;11.724;2023-08-31T04:45:33;8.80;;;7.57;;
3487;SDS011;38546;48.170;11.724;2023-08-31T04:48:23;8.57;;;7.27;;
3487;SDS011;38546;48.170;11.724;2023-08-31T04:51:31;9.67;;;7.47;;
3487;SDS011;38546;48.170;11.724;2023-08-31T04:54:22;8.63;;;7.03;;
3487;SDS011;38546;48.170;11.724;2023-08-31T04:57:11;11.13;;;7.97;;
3487;SDS011;38546;48.170;11.724;2023-08-31T05:00:01;9.90;;;7.80;;
3487;SDS011;38546;48.170;11.724;2023-08-31T05:02:52;9.60;;;7.20;;
3487;SDS011;38546;48.170;11.724;2023-08-31T05:05:41;11.97;;;8.03;;
3487;SDS011;38546;48.170;11.724;2023-08-31T05:08:31;10.70;;;7.33;;
3487;SDS011;38546;48.170;11.724;2023-08-31T05:11:21;8.27;;;6.93;;
3487;SDS011;38546;48.170;11.724;2023-08-31T05:14:10;7.70;;;7.00;;
3487;SDS011;38546;48.170;11.724;2023-08-31T05:16:59;8.73;;;6.70;;
3487;SDS011;38546;48.170;11.724;2023-08-31T05:19:48;8.93;;;6.67;;
3487;SDS011;38546;48.170;11.724;2023-08-31T05:22:38;7.87;;;6.20;;
3487;SDS011;38546;48.170;11.724;2023-08-31T05:25:28;7.87;;;6.73;;
3487;SDS011;38546;48.170;11.724;2023-08-31T05:28:17;8.30;;;7.50;;
3487;SDS011;38546;48.170;11.724;2023-08-31T05:31:06;7.70;;;6.90;;
3487;SDS011;38546;48.170;11.724;2023-08-31T05:33:56;7.43;;;6.00;;
3487;SDS011;38546;48.170;11.724;2023-08-31T05:36:46;10.67;;;6.30;;
3487;SDS011;38546;48.170;11.724;2023-08-31T05:39:35;5.60;;;5.10;;
3487;SDS011;38546;48.170;11.724;2023-08-31T05:42:25;6.77;;;5.50;;
3487;SDS011;38546;48.170;11.724;2023-08-31T05:45:15;5.90;;;5.33;;
3487;SDS011;38546;48.170;11.724;2023-08-31T05:48:05;7.03;;;5.67;;
3487;SDS011;38546;48.170;11.724;2023-08-31T05:50:57;6.20;;;5.10;;
3487;SDS011;38546;48.170;11.724;2023-08-31T05:53:46;13.20;;;6.10;;
3487;SDS011;38546;48.170;11.724;2023-08-31T05:56:36;5.20;;;4.70;;
3487;SDS011;38546;48.170;11.724;2023-08-31T05:59:27;4.83;;;4.40;;
3487;SDS011;38546;48.170;11.724;2023-08-31T06:02:17;5.77;;;5.23;;
3487;SDS011;38546;48.170;11.724;2023-08-31T06:05:06;5.30;;;4.80;;
3487;SDS011;38546;48.170;11.724;2023-08-31T06:07:56;4.73;;;4.33;;
3487;SDS011;38546;48.170;11.724;2023-08-31T06:10:46;5.73;;;5.13;;
3487;SDS011;38546;48.170;11.724;2023-08-31T06:13:37;5.80;;;4.10;;
3487;SDS011;38546;48.170;11.724;2023-08-31T06:16:26;3.63;;;3.40;;
3487;SDS011;38546;48.170;11.724;2023-08-31T06:19:16;4.80;;;4.50;;
3487;SDS011;38546;48.170;11.724;2023-08-31T06:22:05;5.33;;;4.30;;
3487;SDS011;38546;48.170;11.724;2023-08-31T06:24:55;8.83;;;4.40;;
3487;SDS011;38546;48.170;11.724;2023-08-31T06:27:44;4.13;;;3.83;;
3487;SDS011;38546;48.170;11.724;2023-08-31T06:30:34;5.70;;;4.73;;
3487;SDS011;38546;48.170;11.724;2023-08-31T06:33:24;6.33;;;5.60;;
3487;SDS011;38546;48.170;11.724;2023-08-31T06:36:13;9.57;;;5.70;;
3487;SDS011;38546;48.170;11.724;2023-08-31T06:39:02;5.63;;;5.03;;
3487;SDS011;38546;48.170;11.724;2023-08-31T06:41:53;6.83;;;4.63;;
3487;SDS011;38546;48.170;11.724;2023-08-31T06:44:42;6.60;;;5.23;;
3487;SDS011;38546;48.170;11.724;2023-08-31T06:47:31;7.17;;;6.23;;
3487;SDS011;38546;48.170;11.724;2023-08-31T06:50:21;5.07;;;4.67;;
3487;SDS011;38546;48.170;11.724;2023-08-31T06:53:11;5.57;;;5.03;;
3487;SDS011;38546;48.170;11.724;2023-08-31T06:56:00;5.40;;;4.90;;
3487;SDS011;38546;48.170;11.724;2023-08-31T06:58:50;5.87;;;4.93;;
3487;SDS011;38546;48.170;11.724;2023-08-31T07:01:39;6.10;;;4.37;;
3487;SDS011;38546;48.170;11.724;2023-08-31T07:04:28;5.80;;;4.90;;
3487;SDS011;38546;48.170;11.724;2023-08-31T07:07:18;5.03;;;4.53;;
3487;SDS011;38546;48.170;11.724;2023-08-31T07:10:07;4.70;;;4.30;;
3487;SDS011;38546;48.170;11.724;2023-08-31T07:12:58;4.50;;;4.20;;
3487;SDS011;38546;48.170;11.724;2023-08-31T07:15:47;4.80;;;4.40;;
3487;SDS011;38546;48.170;11.724;2023-08-31T07:18:40;4.53;;;4.13;;
3487;SDS011;38546;48.170;11.724;2023-08-31T07:21:32;4.40;;;4.00;;
3487;SDS011;38546;48.170;11.724;2023-08-31T07:24:22;5.63;;;5.10;;
3487;SDS011;38546;48.170;11.724;2023-08-31T07:27:14;8.23;;;5.67;;
3487;SDS011;38546;48.170;11.724;2023-08-31T07:30:12;5.37;;;4.87;;
3487;SDS011;38546;48.170;11.724;2023-08-31T07:33:06;7.90;;;5.10;;
3487;SDS011;38546;48.170;11.724;2023-08-31T07:36:22;7.53;;;5.13;;
3487;SDS011;38546;48.170;11.724;2023-08-31T07:39:17;6.60;;;4.87;;
3487;SDS011;38546;48.170;11.724;2023-08-31T07:42:10;5.77;;;4.70;;
3487;SDS011;38546;48.170;11.724;2023-08-31T07:45:10;5.00;;;4.60;;
3487;SDS011;38546;48.170;11.724;2023-08-31T07:48:22;4.10;;;3.77;;
3487;SDS011;38546;48.170;11.724;2023-08-31T07:51:34;4.40;;;4.10;;
3487;SDS011;38546;48.170;11.724;2023-08-31T07:54:43;5.20;;;3.90;;
3487;SDS011;38546;48.170;11.724;2023-08-31T07:57:34;4.10;;;3.47;;
3487;SDS011;38546;48.170;11.724;2023-08-31T08:00:33;7.90;;;5.20;;
3487;SDS011;38546;48.170;11.724;2023-08-31T08:03:27;5.60;;;4.73;;
3487;SDS011;38546;48.170;11.724;2023-08-31T08:06:23;4.50;;;4.10;;
3487;SDS011;38546;48.170;11.724;2023-08-31T08:09:17;5.03;;;4.60;;
3487;SDS011;38546;48.170;11.724;2023-08-31T08:12:32;4.30;;;4.00;;
3487;SDS011;38546;48.170;11.724;2023-08-31T08:15:46;5.70;;;3.87;;
3487;SDS011;38546;48.170;11.724;2023-08-31T08:18:35;4.47;;;4.07;;
3487;SDS011;38546;48.170;11.724;2023-08-31T08:21:25;6.80;;;4.67;;
3487;SDS011;38546;48.170;11.724;2023-08-31T08:24:17;3.83;;;3.53;;
3487;SDS011;38546;48.170;11.724;2023-08-31T08:27:11;5.37;;;3.63;;
3487;SDS011;38546;48.170;11.724;2023-08-31T08:30:18;3.50;;;3.30;;
3487;SDS011;38546;48.170;11.724;2023-08-31T08:33:08;4.67;;;4.27;;
3487;SDS011;38546;48.170;11.724;2023-08-31T08:35:58;4.07;;;3.67;;
3487;SDS011;38546;48.170;11.724;2023-08-31T08:38:47;11.20;;;3.40;;
3487;SDS011;38546;48.170;11.724;2023-08-31T08:41:37;4.67;;;3.50;;
3487;SDS011;38546;48.170;11.724;2023-08-31T08:44:30;5.60;;;3.80;;
3487;SDS011;38546;48.170;11.724;2023-08-31T08:47:22;3.50;;;3.20;;
3487;SDS011;38546;48.170;11.724;2023-08-31T08:50:11;5.87;;;3.97;;
3487;SDS011;38546;48.170;11.724;2023-08-31T08:53:02;4.03;;;3.57;;
3487;SDS011;38546;48.170;11.724;2023-08-31T08:55:53;6.20;;;3.93;;
3487;SDS011;38546;48.170;11.724;2023-08-31T08:58:42;3.73;;;3.43;;
3487;SDS011;38546;48.170;11.724;2023-08-31T09:01:35;7.10;;;3.20;;
3487;SDS011;38546;48.170;11.724;2023-08-31T09:04:25;3.77;;;3.47;;
3487;SDS011;38546;48.170;11.724;2023-08-31T09:07:14;5.57;;;3.40;;
3487;SDS011;38546;48.170;11.724;2023-08-31T09:10:04;5.67;;;3.90;;
3487;SDS011;38546;48.170;11.724;2023-08-31T09:12:54;7.30;;;4.00;;
3487;SDS011;38546;48.170;11.724;2023-08-31T09:15:47;3.23;;;2.93;;
3487;SDS011;38546;48.170;11.724;2023-08-31T09:18:37;3.83;;;3.53;;
3487;SDS011;38546;48.170;11.724;2023-08-31T09:21:36;2.97;;;2.77;;
3487;SDS011;38546;48.170;11.724;2023-08-31T09:24:29;4.00;;;3.50;;
3487;SDS011;38546;48.170;11.724;2023-08-31T09:27:28;4.50;;;3.73;;
3487;SDS011;38546;48.170;11.724;2023-08-31T09:30:20;4.03;;;3.00;;
3487;SDS011;38546;48.170;11.724;2023-08-31T09:33:10;3.30;;;2.60;;
3487;SDS011;38546;48.170;11.724;2023-08-31T09:36:06;4.00;;;2.73;;
3487;SDS011;38546;48.170;11.724;2023-08-31T09:38:59;3.57;;;2.80;;
3487;SDS011;38546;48.170;11.724;2023-08-31T09:41:52;4.87;;;2.70;;
3487;SDS011;38546;48.170;11.724;2023-08-31T09:44:43;3.77;;;2.97;;
3487;SDS011;38546;48.170;11.724;2023-08-31T09:47:33;7.17;;;3.23;;
3487;SDS011;38546;48.170;11.724;2023-08-31T09:50:23;3.07;;;2.87;;
3487;SDS011;38546;48.170;11.724;2023-08-31T09:53:15;3.00;;;2.80;;
3487;SDS011;38546;48.170;11.724;2023-08-31T09:56:05;4.90;;;2.87;;
3487;SDS011;38546;48.170;11.724;2023-08-31T09:58:56;3.90;;;2.53;;
3487;SDS011;38546;48.170;11.724;2023-08-31T10:01:45;6.20;;;4.53;;
3487;SDS011;38546;48.170;11.724;2023-08-31T10:04:36;3.27;;;2.60;;
3487;SDS011;38546;48.170;11.724;2023-08-31T10:07:25;3.20;;;2.87;;
3487;SDS011;38546;48.170;11.724;2023-08-31T10:10:16;3.63;;;3.20;;
3487;SDS011;38546;48.170;11.724;2023-08-31T10:13:05;4.80;;;3.70;;
3487;SDS011;38546;48.170;11.724;2023-08-31T10:15:55;3.47;;;3.20;;
3487;SDS011;38546;48.170;11.724;2023-08-31T10:18:45;3.40;;;3.10;;
3487;SDS011;38546;48.170;11.724;2023-08-31T10:21:35;3.80;;;3.07;;
3487;SDS011;38546;48.170;11.724;2023-08-31T10:24:56;3.63;;;2.87;;
3487;SDS011;38546;48.170;11.724;2023-08-31T10:27:54;4.40;;;3.20;;
3487;SDS011;38546;48.170;11.724;2023-08-31T10:30:59;3.13;;;2.87;;
3487;SDS011;38546;48.170;11.724;2023-08-31T10:34:03;8.80;;;3.10;;
3487;SDS011;38546;48.170;11.724;2023-08-31T10:36:58;6.77;;;2.80;;
3487;SDS011;38546;48.170;11.724;2023-08-31T10:39:47;3.37;;;3.03;;
3487;SDS011;38546;48.170;11.724;2023-08-31T10:42:46;3.07;;;2.87;;
3487;SDS011;38546;48.170;11.724;2023-08-31T10:46:05;2.53;;;2.33;;
3487;SDS011;38546;48.170;11.724;2023-08-31T10:49:36;3.47;;;3.27;;
3487;SDS011;38546;48.170;11.724;2023-08-31T10:52:25;4.10;;;3.10;;
3487;SDS011;38546;48.170;11.724;2023-08-31T10:55:15;3.00;;;2.80;;
3487;SDS011;38546;48.170;11.724;2023-08-31T10:58:09;6.43;;;2.60;;
3487;SDS011;38546;48.170;11.724;2023-08-31T11:00:59;2.60;;;2.40;;
3487;SDS011;38546;48.170;11.724;2023-08-31T11:03:57;2.77;;;2.57;;
3487;SDS011;38546;48.170;11.724;2023-08-31T11:06:47;4.90;;;3.63;;
3487;SDS011;38546;48.170;11.724;2023-08-31T11:09:37;2.93;;;2.73;;
3487;SDS011;38546;48.170;11.724;2023-08-31T11:12:26;3.20;;;2.90;;
3487;SDS011;38546;48.170;11.724;2023-08-31T11:15:16;4.80;;;4.00;;
3487;SDS011;38546;48.170;11.724;2023-08-31T11:18:09;4.27;;;3.43;;
3487;SDS011;38546;48.170;11.724;2023-08-31T11:20:59;6.03;;;4.27;;
3487;SDS011;38546;48.170;11.724;2023-08-31T11:23:48;5.20;;;4.27;;
3487;SDS011;38546;48.170;11.724;2023-08-31T11:26:38;11.37;;;5.00;;
3487;SDS011;38546;48.170;11.724;2023-08-31T11:29:27;7.57;;;4.43;;
3487;SDS011;38546;48.170;11.724;2023-08-31T11:32:17;8.10;;;4.13;;
3487;SDS011;38546;48.170;11.724;2023-08-31T11:35:06;4.07;;;3.70;;
3487;SDS011;38546;48.170;11.724;2023-08-31T11:37:56;4.17;;;3.77;;
3487;SDS011;38546;48.170;11.724;2023-08-31T11:40:45;6.17;;;3.90;;
3487;SDS011;38546;48.170;11.724;2023-08-31T11:43:35;7.77;;;4.27;;
3487;SDS011;38546;48.170;11.724;2023-08-31T11:46:26;8.93;;;4.00;;
3487;SDS011;38546;48.170;11.724;2023-08-31T11:49:17;5.50;;;3.90;;
3487;SDS011;38546;48.170;11.724;2023-08-31T11:52:09;6.30;;;4.60;;
3487;SDS011;38546;48.170;11.724;2023-08-31T11:55:00;4.17;;;3.30;;
3487;SDS011;38546;48.170;11.724;2023-08-31T11:57:50;3.73;;;3.43;;
3487;SDS011;38546;48.170;11.724;2023-08-31T12:00:43;5.40;;;3.30;;
3487;SDS011;38546;48.170;11.724;2023-08-31T12:03:41;6.20;;;4.10;;
3487;SDS011;38546;48.170;11.724;2023-08-31T12:06:35;6.60;;;4.10;;
3487;SDS011;38546;48.170;11.724;2023-08-31T12:09:25;4.07;;;3.67;;
3487;SDS011;38546;48.170;11.724;2023-08-31T12:12:20;4.57;;;4.03;;
3487;SDS011;38546;48.170;11.724;2023-08-31T12:15:10;4.03;;;3.20;;
3487;SDS011;38546;48.170;11.724;2023-08-31T12:18:06;5.77;;;3.50;;
3487;SDS011;38546;48.170;11.724;2023-08-31T12:21:00;9.43;;;4.57;;
3487;SDS011;38546;48.170;11.724;2023-08-31T12:23:49;3.60;;;3.30;;
3487;SDS011;38546;48.170;11.724;2023-08-31T12:26:38;5.13;;;3.70;;
3487;SDS011;38546;48.170;11.724;2023-08-31T12:29:29;4.43;;;3.90;;
3487;SDS011;38546;48.170;11.724;2023-08-31T12:32:18;3.70;;;3.40;;
3487;SDS011;38546;48.170;11.724;2023-08-31T12:35:08;7.83;;;4.20;;
3487;SDS011;38546;48.170;11.724;2023-08-31T12:37:59;4.10;;;3.70;;
3487;SDS011;38546;48.170;11.724;2023-08-31T12:40:48;9.67;;;3.57;;
3487;SDS011;38546;48.170;11.724;2023-08-31T12:43:37;4.20;;;3.47;;
3487;SDS011;38546;48.170;11.724;2023-08-31T12:46:27;3.57;;;3.30;;
3487;SDS011;38546;48.170;11.724;2023-08-31T12:49:16;5.17;;;3.67;;
3487;SDS011;38546;48.170;11.724;2023-08-31T12:52:06;5.80;;;3.23;;
3487;SDS011;38546;48.170;11.724;2023-08-31T12:54:56;3.30;;;3.00;;
3487;SDS011;38546;48.170;11.724;2023-08-31T12:57:46;3.27;;;2.97;;
3487;SDS011;38546;48.170;11.724;2023-08-31T13:00:35;6.00;;;2.97;;
3487;SDS011;38546;48.170;11.724;2023-08-31T13:03:25;3.50;;;3.00;;
3487;SDS011;38546;48.170;11.724;2023-08-31T13:06:15;6.10;;;3.57;;
3487;SDS011;38546;48.170;11.724;2023-08-31T13:09:05;3.47;;;3.00;;
3487;SDS011;38546;48.170;11.724;2023-08-31T13:11:57;2.83;;;2.53;;
3487;SDS011;38546;48.170;11.724;2023-08-31T13:14:47;5.13;;;3.07;;
3487;SDS011;38546;48.170;11.724;2023-08-31T13:17:36;6.80;;;3.33;;
3487;SDS011;38546;48.170;11.724;2023-08-31T13:20:25;4.40;;;3.00;;
3487;SDS011;38546;48.170;11.724;2023-08-31T13:23:16;3.60;;;3.30;;
3487;SDS011;38546;48.170;11.724;2023-08-31T13:26:05;9.53;;;3.30;;
3487;SDS011;38546;48.170;11.724;2023-08-31T13:28:54;3.43;;;3.07;;
3487;SDS011;38546;48.170;11.724;2023-08-31T13:31:45;7.53;;;3.20;;
3487;SDS011;38546;48.170;11.724;2023-08-31T13:34:34;10.23;;;3.50;;
3487;SDS011;38546;48.170;11.724;2023-08-31T13:37:25;3.63;;;3.07;;
3487;SDS011;38546;48.170;11.724;2023-08-31T13:40:15;5.10;;;3.33;;
3487;SDS011;38546;48.170;11.724;2023-08-31T13:43:04;5.00;;;2.77;;
3487;SDS011;38546;48.170;11.724;2023-08-31T13:45:53;3.13;;;2.83;;
3487;SDS011;38546;48.170;11.724;2023-08-31T13:48:43;6.57;;;3.47;;
3487;SDS011;38546;48.170;11.724;2023-08-31T13:51:32;4.07;;;2.50;;
3487;SDS011;38546;48.170;11.724;2023-08-31T13:54:21;2.73;;;2.53;;
3487;SDS011;38546;48.170;11.724;2023-08-31T13:57:10;5.57;;;3.43;;
3487;SDS011;38546;48.170;11.724;2023-08-31T14:00:06;3.73;;;3.03;;
3487;SDS011;38546;48.170;11.724;2023-08-31T14:02:58;4.97;;;3.00;;
3487;SDS011;38546;48.170;11.724;2023-08-31T14:05:51;3.53;;;2.80;;
3487;SDS011;38546;48.170;11.724;2023-08-31T14:08:40;2.90;;;2.70;;
3487;SDS011;38546;48.170;11.724;2023-08-31T14:11:30;3.00;;;2.63;;
3487;SDS011;38546;48.170;11.724;2023-08-31T14:14:19;3.07;;;2.77;;
3487;SDS011;38546;48.170;11.724;2023-08-31T14:17:10;3.50;;;3.00;;
3487;SDS011;38546;48.170;11.724;2023-08-31T14:20:00;2.93;;;2.70;;
3487;SDS011;38546;48.170;11.724;2023-08-31T14:22:54;2.53;;;2.40;;
3487;SDS011;38546;48.170;11.724;2023-08-31T14:25:43;3.80;;;3.27;;
3487;SDS011;38546;48.170;11.724;2023-08-31T14:28:33;3.47;;;2.77;;
3487;SDS011;38546;48.170;11.724;2023-08-31T14:31:22;3.40;;;3.10;;
3487;SDS011;38546;48.170;11.724;2023-08-31T14:34:12;8.83;;;3.00;;
3487;SDS011;38546;48.170;11.724;2023-08-31T14:37:01;4.77;;;3.40;;
3487;SDS011;38546;48.170;11.724;2023-08-31T14:39:52;3.83;;;2.77;;
3487;SDS011;38546;48.170;11.724;2023-08-31T14:42:41;6.00;;;3.03;;
3487;SDS011;38546;48.170;11.724;2023-08-31T14:45:30;3.07;;;2.70;;
3487;SDS011;38546;48.170;11.724;2023-08-31T14:48:19;3.97;;;2.57;;
3487;SDS011;38546;48.170;11.724;2023-08-31T14:51:08;2.67;;;2.50;;
3487;SDS011;38546;48.170;11.724;2023-08-31T14:53:58;2.83;;;2.63;;
3487;SDS011;38546;48.170;11.724;2023-08-31T14:56:48;2.80;;;2.60;;
3487;SDS011;38546;48.170;11.724;2023-08-31T14:59:37;2.90;;;2.60;;
3487;SDS011;38546;48.170;11.724;2023-08-31T15:02:27;3.47;;;3.17;;
3487;SDS011;38546;48.170;11.724;2023-08-31T15:05:16;3.10;;;2.80;;
3487;SDS011;38546;48.170;11.724;2023-08-31T15:08:05;3.30;;;3.00;;
3487;SDS011;38546;48.170;11.724;2023-08-31T15:10:56;5.30;;;3.07;;
3487;SDS011;38546;48.170;11.724;2023-08-31T15:13:45;3.50;;;3.20;;
3487;SDS011;38546;48.170;11.724;2023-08-31T15:16:34;6.70;;;3.40;;
3487;SDS011;38546;48.170;11.724;2023-08-31T15:19:24;3.33;;;2.57;;
3487;SDS011;38546;48.170;11.724;2023-08-31T15:22:13;4.23;;;2.70;;
3487;SDS011;38546;48.170;11.724;2023-08-31T15:25:03;5.33;;;3.47;;
3487;SDS011;38546;48.170;11.724;2023-08-31T15:27:53;3.07;;;2.80;;
3487;SDS011;38546;48.170;11.724;2023-08-31T15:30:42;3.30;;;3.00;;
3487;SDS011;38546;48.170;11.724;2023-08-31T15:33:31;3.57;;;3.27;;
3487;SDS011;38546;48.170;11.724;2023-08-31T15:36:21;4.57;;;2.67;;
3487;SDS011;38546;48.170;11.724;2023-08-31T15:39:10;4.20;;;2.97;;
3487;SDS011;38546;48.170;11.724;2023-08-31T15:42:01;5.33;;;2.70;;
3487;SDS011;38546;48.170;11.724;2023-08-31T15:44:50;4.90;;;3.40;;
3487;SDS011;38546;48.170;11.724;2023-08-31T15:47:40;3.17;;;2.63;;
3487;SDS011;38546;48.170;11.724;2023-08-31T15:50:30;3.13;;;2.83;;
3487;SDS011;38546;48.170;11.724;2023-08-31T15:53:19;3.33;;;3.03;;
3487;SDS011;38546;48.170;11.724;2023-08-31T15:56:08;3.87;;;2.53;;
3487;SDS011;38546;48.170;11.724;2023-08-31T15:58:58;4.70;;;2.67;;
3487;SDS011;38546;48.170;11.724;2023-08-31T16:01:47;3.10;;;2.90;;
3487;SDS011;38546;48.170;11.724;2023-08-31T16:04:36;2.60;;;2.40;;
3487;SDS011;38546;48.170;11.724;2023-08-31T16:07:26;3.90;;;3.17;;
3487;SDS011;38546;48.170;11.724;2023-08-31T16:10:14;4.30;;;3.00;;
3487;SDS011;38546;48.170;11.724;2023-08-31T16:13:04;4.23;;;2.97;;
3487;SDS011;38546;48.170;11.724;2023-08-31T16:15:53;3.00;;;2.80;;
3487;SDS011;38546;48.170;11.724;2023-08-31T16:18:43;7.63;;;3.30;;
3487;SDS011;38546;48.170;11.724;2023-08-31T16:21:32;3.07;;;2.83;;
3487;SDS011;38546;48.170;11.724;2023-08-31T16:24:21;7.83;;;3.47;;
3487;SDS011;38546;48.170;11.724;2023-08-31T16:27:10;2.50;;;2.40;;
3487;SDS011;38546;48.170;11.724;2023-08-31T16:29:59;3.13;;;2.93;;
3487;SDS011;38546;48.170;11.724;2023-08-31T16:32:48;4.37;;;2.67;;
3487;SDS011;38546;48.170;11.724;2023-08-31T16:35:37;3.80;;;3.47;;
3487;SDS011;38546;48.170;11.724;2023-08-31T16:38:26;7.13;;;3.40;;
3487;SDS011;38546;48.170;11.724;2023-08-31T16:41:15;5.73;;;3.80;;
3487;SDS011;38546;48.170;11.724;2023-08-31T16:44:05;5.47;;;3.57;;
3487;SDS011;38546;48.170;11.724;2023-08-31T16:46:54;4.50;;;3.93;;
3487;SDS011;38546;48.170;11.724;2023-08-31T16:49:43;8.00;;;3.70;;
3487;SDS011;38546;48.170;11.724;2023-08-31T16:52:32;4.10;;;3.70;;
3487;SDS011;38546;48.170;11.724;2023-08-31T16:55:21;4.10;;;3.47;;
3487;SDS011;38546;48.170;11.724;2023-08-31T16:58:11;8.10;;;5.03;;
3487;SDS011;38546;48.170;11.724;2023-08-31T17:01:00;5.10;;;4.60;;
3487;SDS011;38546;48.170;11.724;2023-08-31T17:03:49;5.07;;;3.90;;
3487;SDS011;38546;48.170;11.724;2023-08-31T17:06:37;5.77;;;3.83;;
3487;SDS011;38546;48.170;11.724;2023-08-31T17:09:27;4.47;;;2.90;;
3487;SDS011;38546;48.170;11.724;2023-08-31T17:12:16;2.73;;;2.53;;
3487;SDS011;38546;48.170;11.724;2023-08-31T17:15:06;4.30;;;3.07;;
3487;SDS011;38546;48.170;11.724;2023-08-31T17:17:58;6.37;;;3.23;;